sensor_id;sensor_type;location;lat;lon;timestamp;P1;durP1;ratioP1;P2;durP2;ratioP2
6751;SDS011;3413;47.680;9.166;2023-05-19T00:04:15;5.90;;;2.40;;
6751;SDS011;3413;47.680;9.166;2023-05-19T00:09:17;4.70;;;1.93;;
6751;SDS011;3413;47.680;9.166;2023-05-19T00:14:19;5.30;;;1.40;;
6751;SDS011;3413;47.680;9.166;2023-05-19T00:19:22;4.50;;;1.90;;
6751;SDS011;3413;47.680;9.166;2023-05-19T00:24:27;5.10;;;1.50;;
6751;SDS011;3413;47.680;9.166;2023-05-19T00:29:29;4.30;;;1.80;;
6751;SDS011;3413;47.680;9.166;2023-05-19T00:34:31;4.63;;;1.60;;
6751;SDS011;3413;47.680;9.166;2023-05-19T00:39:33;3.80;;;1.73;;
6751;SDS011;3413;47.680;9.166;2023-05-19T00:44:36;6.20;;;1.70;;
6751;SDS011;3413;47.680;9.166;2023-05-19T00:49:41;2.40;;;1.63;;
6751;SDS011;3413;47.680;9.166;2023-05-19T00:54:44;3.63;;;1.60;;
6751;SDS011;3413;47.680;9.166;2023-05-19T00:59:49;2.70;;;1.33;;
6751;SDS011;3413;47.680;9.166;2023-05-19T01:04:51;2.57;;;1.50;;
6751;SDS011;3413;47.680;9.166;2023-05-19T01:09:55;2.70;;;1.40;;
6751;SDS011;3413;47.680;9.166;2023-05-19T01:14:58;5.10;;;1.47;;
6751;SDS011;3413;47.680;9.166;2023-05-19T01:35:34;2.70;;;1.40;;
6751;SDS011;3413;47.680;9.166;2023-05-19T01:40:38;3.30;;;1.60;;
6751;SDS011;3413;47.680;9.166;2023-05-19T01:45:42;3.17;;;1.27;;
6751;SDS011;3413;47.680;9.166;2023-05-19T01:50:45;3.20;;;1.70;;
6751;SDS011;3413;47.680;9.166;2023-05-19T01:55:50;2.20;;;1.23;;
6751;SDS011;3413;47.680;9.166;2023-05-19T02:16:51;2.73;;;1.30;;
6751;SDS011;3413;47.680;9.166;2023-05-19T02:21:54;3.90;;;1.60;;
6751;SDS011;3413;47.680;9.166;2023-05-19T02:26:56;4.70;;;1.70;;
6751;SDS011;3413;47.680;9.166;2023-05-19T02:31:59;3.10;;;1.10;;
6751;SDS011;3413;47.680;9.166;2023-05-19T02:37:02;4.50;;;1.77;;
6751;SDS011;3413;47.680;9.166;2023-05-19T02:42:05;3.90;;;1.90;;
6751;SDS011;3413;47.680;9.166;2023-05-19T02:47:07;6.30;;;2.10;;
6751;SDS011;3413;47.680;9.166;2023-05-19T02:52:09;4.43;;;1.63;;
6751;SDS011;3413;47.680;9.166;2023-05-19T02:57:13;2.90;;;1.40;;
6751;SDS011;3413;47.680;9.166;2023-05-19T03:02:15;4.40;;;1.43;;
6751;SDS011;3413;47.680;9.166;2023-05-19T03:07:17;2.50;;;1.60;;
6751;SDS011;3413;47.680;9.166;2023-05-19T03:12:25;2.97;;;1.60;;
6751;SDS011;3413;47.680;9.166;2023-05-19T03:17:27;4.30;;;1.90;;
6751;SDS011;3413;47.680;9.166;2023-05-19T03:22:34;2.53;;;1.67;;
6751;SDS011;3413;47.680;9.166;2023-05-19T03:27:36;4.07;;;1.87;;
6751;SDS011;3413;47.680;9.166;2023-05-19T03:32:39;7.20;;;1.83;;
6751;SDS011;3413;47.680;9.166;2023-05-19T03:37:42;3.03;;;1.67;;
6751;SDS011;3413;47.680;9.166;2023-05-19T03:42:45;2.90;;;1.60;;
6751;SDS011;3413;47.680;9.166;2023-05-19T03:47:47;4.83;;;1.90;;
6751;SDS011;3413;47.680;9.166;2023-05-19T03:53:12;3.70;;;1.97;;
6751;SDS011;3413;47.680;9.166;2023-05-19T03:58:14;4.50;;;2.00;;
6751;SDS011;3413;47.680;9.166;2023-05-19T04:03:17;4.47;;;1.70;;
6751;SDS011;3413;47.680;9.166;2023-05-19T04:08:19;3.77;;;1.87;;
6751;SDS011;3413;47.680;9.166;2023-05-19T04:13:21;6.17;;;3.40;;
6751;SDS011;3413;47.680;9.166;2023-05-19T04:18:25;6.73;;;2.10;;
6751;SDS011;3413;47.680;9.166;2023-05-19T04:23:29;3.90;;;2.10;;
6751;SDS011;3413;47.680;9.166;2023-05-19T04:28:32;6.20;;;2.07;;
6751;SDS011;3413;47.680;9.166;2023-05-19T04:33:37;5.90;;;1.87;;
6751;SDS011;3413;47.680;9.166;2023-05-19T04:38:39;5.40;;;2.30;;
6751;SDS011;3413;47.680;9.166;2023-05-19T04:43:44;7.97;;;2.47;;
6751;SDS011;3413;47.680;9.166;2023-05-19T04:48:49;3.20;;;2.00;;
6751;SDS011;3413;47.680;9.166;2023-05-19T04:53:51;4.37;;;2.30;;
6751;SDS011;3413;47.680;9.166;2023-05-19T04:58:54;14.70;;;2.60;;
6751;SDS011;3413;47.680;9.166;2023-05-19T05:03:57;4.37;;;2.37;;
6751;SDS011;3413;47.680;9.166;2023-05-19T05:09:01;5.33;;;2.10;;
6751;SDS011;3413;47.680;9.166;2023-05-19T05:14:05;4.87;;;2.07;;
6751;SDS011;3413;47.680;9.166;2023-05-19T05:19:08;10.33;;;2.50;;
6751;SDS011;3413;47.680;9.166;2023-05-19T05:24:11;4.33;;;2.77;;
6751;SDS011;3413;47.680;9.166;2023-05-19T05:29:23;7.70;;;2.57;;
6751;SDS011;3413;47.680;9.166;2023-05-19T05:34:27;9.17;;;3.33;;
6751;SDS011;3413;47.680;9.166;2023-05-19T05:39:30;6.03;;;3.00;;
6751;SDS011;3413;47.680;9.166;2023-05-19T05:44:38;3.70;;;2.20;;
6751;SDS011;3413;47.680;9.166;2023-05-19T05:49:42;6.23;;;2.97;;
6751;SDS011;3413;47.680;9.166;2023-05-19T05:54:50;6.20;;;2.43;;
6751;SDS011;3413;47.680;9.166;2023-05-19T05:59:54;8.97;;;3.70;;
6751;SDS011;3413;47.680;9.166;2023-05-19T06:04:57;9.10;;;2.03;;
6751;SDS011;3413;47.680;9.166;2023-05-19T06:09:59;8.20;;;2.63;;
6751;SDS011;3413;47.680;9.166;2023-05-19T06:15:05;11.13;;;2.77;;
6751;SDS011;3413;47.680;9.166;2023-05-19T06:20:21;9.80;;;2.50;;
6751;SDS011;3413;47.680;9.166;2023-05-19T06:25:24;10.83;;;3.40;;
6751;SDS011;3413;47.680;9.166;2023-05-19T06:30:28;6.83;;;3.00;;
6751;SDS011;3413;47.680;9.166;2023-05-19T06:35:46;7.70;;;2.57;;
6751;SDS011;3413;47.680;9.166;2023-05-19T06:40:49;13.83;;;2.83;;
6751;SDS011;3413;47.680;9.166;2023-05-19T06:45:52;14.43;;;2.80;;
6751;SDS011;3413;47.680;9.166;2023-05-19T06:50:56;11.70;;;3.27;;
6751;SDS011;3413;47.680;9.166;2023-05-19T06:55:59;3.53;;;2.03;;
6751;SDS011;3413;47.680;9.166;2023-05-19T07:01:07;7.90;;;3.23;;
6751;SDS011;3413;47.680;9.166;2023-05-19T07:06:16;9.53;;;2.70;;
6751;SDS011;3413;47.680;9.166;2023-05-19T07:11:21;4.10;;;2.73;;
6751;SDS011;3413;47.680;9.166;2023-05-19T07:16:24;8.67;;;3.13;;
6751;SDS011;3413;47.680;9.166;2023-05-19T07:21:29;6.37;;;2.50;;
6751;SDS011;3413;47.680;9.166;2023-05-19T07:26:32;6.70;;;2.30;;
6751;SDS011;3413;47.680;9.166;2023-05-19T07:31:34;8.17;;;2.07;;
6751;SDS011;3413;47.680;9.166;2023-05-19T07:36:37;7.07;;;3.17;;
6751;SDS011;3413;47.680;9.166;2023-05-19T07:41:39;7.20;;;2.80;;
6751;SDS011;3413;47.680;9.166;2023-05-19T07:46:42;6.20;;;2.83;;
6751;SDS011;3413;47.680;9.166;2023-05-19T07:51:44;8.63;;;2.83;;
6751;SDS011;3413;47.680;9.166;2023-05-19T07:56:46;4.03;;;2.60;;
6751;SDS011;3413;47.680;9.166;2023-05-19T08:01:48;4.20;;;2.70;;
6751;SDS011;3413;47.680;9.166;2023-05-19T08:06:50;5.70;;;2.70;;
6751;SDS011;3413;47.680;9.166;2023-05-19T08:11:59;8.67;;;3.00;;
6751;SDS011;3413;47.680;9.166;2023-05-19T08:17:06;22.27;;;3.23;;
6751;SDS011;3413;47.680;9.166;2023-05-19T08:22:08;10.60;;;2.43;;
6751;SDS011;3413;47.680;9.166;2023-05-19T08:27:10;3.30;;;1.90;;
6751;SDS011;3413;47.680;9.166;2023-05-19T08:32:12;5.33;;;2.40;;
6751;SDS011;3413;47.680;9.166;2023-05-19T08:37:14;6.50;;;2.63;;
6751;SDS011;3413;47.680;9.166;2023-05-19T08:42:16;8.10;;;3.47;;
6751;SDS011;3413;47.680;9.166;2023-05-19T08:47:18;8.50;;;2.70;;
6751;SDS011;3413;47.680;9.166;2023-05-19T08:52:23;9.57;;;2.87;;
6751;SDS011;3413;47.680;9.166;2023-05-19T08:57:27;7.20;;;2.43;;
6751;SDS011;3413;47.680;9.166;2023-05-19T09:02:29;6.10;;;2.87;;
6751;SDS011;3413;47.680;9.166;2023-05-19T09:07:46;8.87;;;2.90;;
6751;SDS011;3413;47.680;9.166;2023-05-19T09:12:48;5.87;;;2.97;;
6751;SDS011;3413;47.680;9.166;2023-05-19T09:18:01;10.73;;;2.60;;
6751;SDS011;3413;47.680;9.166;2023-05-19T09:23:14;5.90;;;2.57;;
6751;SDS011;3413;47.680;9.166;2023-05-19T09:28:24;7.57;;;2.70;;
6751;SDS011;3413;47.680;9.166;2023-05-19T09:33:27;5.40;;;3.10;;
6751;SDS011;3413;47.680;9.166;2023-05-19T09:38:30;7.87;;;2.87;;
6751;SDS011;3413;47.680;9.166;2023-05-19T09:43:32;6.13;;;2.60;;
6751;SDS011;3413;47.680;9.166;2023-05-19T09:48:35;7.00;;;3.37;;
6751;SDS011;3413;47.680;9.166;2023-05-19T09:53:37;7.13;;;2.70;;
6751;SDS011;3413;47.680;9.166;2023-05-19T09:58:43;5.07;;;2.60;;
6751;SDS011;3413;47.680;9.166;2023-05-19T10:03:46;4.93;;;2.53;;
6751;SDS011;3413;47.680;9.166;2023-05-19T10:08:48;8.63;;;3.17;;
6751;SDS011;3413;47.680;9.166;2023-05-19T10:13:52;7.03;;;2.63;;
6751;SDS011;3413;47.680;9.166;2023-05-19T10:18:54;11.63;;;2.47;;
6751;SDS011;3413;47.680;9.166;2023-05-19T10:23:57;5.10;;;2.60;;
6751;SDS011;3413;47.680;9.166;2023-05-19T10:28:59;4.70;;;2.00;;
6751;SDS011;3413;47.680;9.166;2023-05-19T10:39:34;11.53;;;3.03;;
6751;SDS011;3413;47.680;9.166;2023-05-19T10:49:41;7.40;;;2.93;;
6751;SDS011;3413;47.680;9.166;2023-05-19T10:54:43;5.33;;;3.07;;
6751;SDS011;3413;47.680;9.166;2023-05-19T10:59:48;8.00;;;2.70;;
6751;SDS011;3413;47.680;9.166;2023-05-19T11:04:50;5.47;;;2.60;;
6751;SDS011;3413;47.680;9.166;2023-05-19T11:09:52;6.70;;;2.73;;
6751;SDS011;3413;47.680;9.166;2023-05-19T11:14:56;5.80;;;2.10;;
6751;SDS011;3413;47.680;9.166;2023-05-19T11:19:59;5.83;;;2.50;;
6751;SDS011;3413;47.680;9.166;2023-05-19T11:25:01;4.83;;;2.50;;
6751;SDS011;3413;47.680;9.166;2023-05-19T11:35:09;8.83;;;2.30;;
6751;SDS011;3413;47.680;9.166;2023-05-19T11:40:12;7.07;;;3.13;;
6751;SDS011;3413;47.680;9.166;2023-05-19T11:45:16;4.27;;;2.40;;
6751;SDS011;3413;47.680;9.166;2023-05-19T11:50:18;6.80;;;2.43;;
6751;SDS011;3413;47.680;9.166;2023-05-19T11:55:21;5.03;;;2.10;;
6751;SDS011;3413;47.680;9.166;2023-05-19T12:00:24;7.73;;;2.20;;
6751;SDS011;3413;47.680;9.166;2023-05-19T12:05:27;4.97;;;2.13;;
6751;SDS011;3413;47.680;9.166;2023-05-19T12:10:34;4.20;;;2.10;;
6751;SDS011;3413;47.680;9.166;2023-05-19T12:15:41;7.73;;;2.43;;
6751;SDS011;3413;47.680;9.166;2023-05-19T12:20:46;5.53;;;2.00;;
6751;SDS011;3413;47.680;9.166;2023-05-19T12:25:48;7.80;;;2.50;;
6751;SDS011;3413;47.680;9.166;2023-05-19T12:30:51;6.00;;;2.07;;
6751;SDS011;3413;47.680;9.166;2023-05-19T12:35:54;4.10;;;1.80;;
6751;SDS011;3413;47.680;9.166;2023-05-19T12:40:59;4.47;;;2.17;;
6751;SDS011;3413;47.680;9.166;2023-05-19T12:46:08;13.33;;;2.07;;
6751;SDS011;3413;47.680;9.166;2023-05-19T12:51:17;6.30;;;2.47;;
6751;SDS011;3413;47.680;9.166;2023-05-19T12:56:20;8.33;;;2.00;;
6751;SDS011;3413;47.680;9.166;2023-05-19T13:01:27;4.77;;;2.10;;
6751;SDS011;3413;47.680;9.166;2023-05-19T13:06:36;4.20;;;2.53;;
6751;SDS011;3413;47.680;9.166;2023-05-19T13:11:38;3.43;;;1.83;;
6751;SDS011;3413;47.680;9.166;2023-05-19T13:16:41;4.30;;;2.23;;
6751;SDS011;3413;47.680;9.166;2023-05-19T13:21:43;4.63;;;1.83;;
6751;SDS011;3413;47.680;9.166;2023-05-19T13:26:47;4.80;;;1.80;;
6751;SDS011;3413;47.680;9.166;2023-05-19T13:31:49;6.83;;;2.53;;
6751;SDS011;3413;47.680;9.166;2023-05-19T13:36:52;6.00;;;2.77;;
6751;SDS011;3413;47.680;9.166;2023-05-19T13:41:54;8.60;;;2.97;;
6751;SDS011;3413;47.680;9.166;2023-05-19T13:46:58;9.33;;;2.67;;
6751;SDS011;3413;47.680;9.166;2023-05-19T13:52:00;14.43;;;3.77;;
6751;SDS011;3413;47.680;9.166;2023-05-19T13:57:03;6.53;;;3.10;;
6751;SDS011;3413;47.680;9.166;2023-05-19T14:02:06;6.70;;;2.73;;
6751;SDS011;3413;47.680;9.166;2023-05-19T14:07:09;5.57;;;2.40;;
6751;SDS011;3413;47.680;9.166;2023-05-19T14:12:11;6.63;;;3.23;;
6751;SDS011;3413;47.680;9.166;2023-05-19T14:17:14;5.03;;;2.77;;
6751;SDS011;3413;47.680;9.166;2023-05-19T14:22:16;8.70;;;3.60;;
6751;SDS011;3413;47.680;9.166;2023-05-19T14:27:18;5.10;;;2.60;;
6751;SDS011;3413;47.680;9.166;2023-05-19T14:32:20;5.93;;;2.87;;
6751;SDS011;3413;47.680;9.166;2023-05-19T14:37:22;9.33;;;3.10;;
6751;SDS011;3413;47.680;9.166;2023-05-19T14:42:24;8.43;;;2.80;;
6751;SDS011;3413;47.680;9.166;2023-05-19T14:47:26;3.53;;;2.33;;
6751;SDS011;3413;47.680;9.166;2023-05-19T14:52:29;5.90;;;2.63;;
6751;SDS011;3413;47.680;9.166;2023-05-19T14:57:31;5.17;;;3.17;;
6751;SDS011;3413;47.680;9.166;2023-05-19T15:02:33;16.67;;;3.63;;
6751;SDS011;3413;47.680;9.166;2023-05-19T15:07:35;5.70;;;2.80;;
6751;SDS011;3413;47.680;9.166;2023-05-19T15:12:37;6.10;;;2.87;;
6751;SDS011;3413;47.680;9.166;2023-05-19T15:17:39;9.77;;;3.57;;
6751;SDS011;3413;47.680;9.166;2023-05-19T15:22:41;8.20;;;3.90;;
6751;SDS011;3413;47.680;9.166;2023-05-19T15:27:43;7.60;;;3.50;;
6751;SDS011;3413;47.680;9.166;2023-05-19T15:32:46;7.07;;;3.20;;
6751;SDS011;3413;47.680;9.166;2023-05-19T15:37:48;6.33;;;3.00;;
6751;SDS011;3413;47.680;9.166;2023-05-19T15:42:51;6.37;;;3.43;;
6751;SDS011;3413;47.680;9.166;2023-05-19T15:47:53;8.27;;;3.00;;
6751;SDS011;3413;47.680;9.166;2023-05-19T15:52:56;10.17;;;3.43;;
6751;SDS011;3413;47.680;9.166;2023-05-19T15:57:58;9.13;;;3.50;;
6751;SDS011;3413;47.680;9.166;2023-05-19T16:03:00;6.90;;;3.43;;
6751;SDS011;3413;47.680;9.166;2023-05-19T16:08:02;5.33;;;3.07;;
6751;SDS011;3413;47.680;9.166;2023-05-19T16:13:08;4.90;;;2.80;;
6751;SDS011;3413;47.680;9.166;2023-05-19T16:18:10;8.50;;;3.20;;
6751;SDS011;3413;47.680;9.166;2023-05-19T16:23:12;9.43;;;3.80;;
6751;SDS011;3413;47.680;9.166;2023-05-19T16:28:14;10.73;;;3.27;;
6751;SDS011;3413;47.680;9.166;2023-05-19T16:33:16;5.80;;;2.80;;
6751;SDS011;3413;47.680;9.166;2023-05-19T16:38:18;5.70;;;2.90;;
6751;SDS011;3413;47.680;9.166;2023-05-19T16:43:20;4.57;;;2.97;;
6751;SDS011;3413;47.680;9.166;2023-05-19T16:48:22;8.50;;;3.13;;
6751;SDS011;3413;47.680;9.166;2023-05-19T16:53:24;5.60;;;3.37;;
6751;SDS011;3413;47.680;9.166;2023-05-19T16:58:26;10.47;;;3.70;;
6751;SDS011;3413;47.680;9.166;2023-05-19T17:03:31;6.53;;;2.50;;
6751;SDS011;3413;47.680;9.166;2023-05-19T17:08:33;6.90;;;3.17;;
6751;SDS011;3413;47.680;9.166;2023-05-19T17:13:35;5.83;;;3.13;;
6751;SDS011;3413;47.680;9.166;2023-05-19T17:18:37;6.50;;;2.83;;
6751;SDS011;3413;47.680;9.166;2023-05-19T17:23:39;4.73;;;2.80;;
6751;SDS011;3413;47.680;9.166;2023-05-19T17:28:41;6.70;;;3.03;;
6751;SDS011;3413;47.680;9.166;2023-05-19T17:33:43;6.50;;;2.90;;
6751;SDS011;3413;47.680;9.166;2023-05-19T17:38:46;6.43;;;2.80;;
6751;SDS011;3413;47.680;9.166;2023-05-19T17:43:48;5.90;;;2.80;;
6751;SDS011;3413;47.680;9.166;2023-05-19T17:48:50;11.23;;;2.90;;
6751;SDS011;3413;47.680;9.166;2023-05-19T17:53:52;6.30;;;2.87;;
6751;SDS011;3413;47.680;9.166;2023-05-19T17:58:54;7.00;;;2.70;;
6751;SDS011;3413;47.680;9.166;2023-05-19T18:03:56;7.53;;;3.00;;
6751;SDS011;3413;47.680;9.166;2023-05-19T18:08:59;4.03;;;2.70;;
6751;SDS011;3413;47.680;9.166;2023-05-19T18:14:03;7.07;;;3.53;;
6751;SDS011;3413;47.680;9.166;2023-05-19T18:19:05;6.03;;;2.47;;
6751;SDS011;3413;47.680;9.166;2023-05-19T18:24:07;9.03;;;2.83;;
6751;SDS011;3413;47.680;9.166;2023-05-19T18:29:09;5.40;;;3.13;;
6751;SDS011;3413;47.680;9.166;2023-05-19T18:34:11;6.33;;;2.90;;
6751;SDS011;3413;47.680;9.166;2023-05-19T18:39:14;4.43;;;2.60;;
6751;SDS011;3413;47.680;9.166;2023-05-19T18:44:16;5.70;;;2.80;;
6751;SDS011;3413;47.680;9.166;2023-05-19T18:49:18;6.23;;;2.80;;
6751;SDS011;3413;47.680;9.166;2023-05-19T18:54:20;5.30;;;2.73;;
6751;SDS011;3413;47.680;9.166;2023-05-19T18:59:22;9.63;;;3.47;;
6751;SDS011;3413;47.680;9.166;2023-05-19T19:04:26;11.03;;;4.07;;
6751;SDS011;3413;47.680;9.166;2023-05-19T19:09:28;5.07;;;2.90;;
6751;SDS011;3413;47.680;9.166;2023-05-19T19:14:29;4.20;;;2.87;;
6751;SDS011;3413;47.680;9.166;2023-05-19T19:19:31;4.10;;;2.77;;
6751;SDS011;3413;47.680;9.166;2023-05-19T19:24:34;7.30;;;2.43;;
6751;SDS011;3413;47.680;9.166;2023-05-19T19:29:36;6.33;;;2.77;;
6751;SDS011;3413;47.680;9.166;2023-05-19T19:34:38;7.10;;;3.13;;
6751;SDS011;3413;47.680;9.166;2023-05-19T19:39:39;6.20;;;2.93;;
6751;SDS011;3413;47.680;9.166;2023-05-19T19:44:41;9.30;;;2.70;;
6751;SDS011;3413;47.680;9.166;2023-05-19T19:49:43;7.20;;;3.00;;
6751;SDS011;3413;47.680;9.166;2023-05-19T19:54:46;6.93;;;3.00;;
6751;SDS011;3413;47.680;9.166;2023-05-19T19:59:48;4.30;;;2.73;;
6751;SDS011;3413;47.680;9.166;2023-05-19T20:04:56;4.40;;;2.83;;
6751;SDS011;3413;47.680;9.166;2023-05-19T20:09:58;5.90;;;2.63;;
6751;SDS011;3413;47.680;9.166;2023-05-19T20:15:00;8.53;;;3.00;;
6751;SDS011;3413;47.680;9.166;2023-05-19T20:20:02;6.10;;;2.80;;
6751;SDS011;3413;47.680;9.166;2023-05-19T20:25:10;10.20;;;4.10;;
6751;SDS011;3413;47.680;9.166;2023-05-19T20:30:12;13.37;;;4.10;;
6751;SDS011;3413;47.680;9.166;2023-05-19T20:35:14;16.90;;;5.30;;
6751;SDS011;3413;47.680;9.166;2023-05-19T20:40:16;15.43;;;5.20;;
6751;SDS011;3413;47.680;9.166;2023-05-19T20:45:18;10.20;;;4.20;;
6751;SDS011;3413;47.680;9.166;2023-05-19T20:50:21;6.47;;;3.63;;
6751;SDS011;3413;47.680;9.166;2023-05-19T20:55:23;10.00;;;2.97;;
6751;SDS011;3413;47.680;9.166;2023-05-19T21:00:25;8.70;;;3.00;;
6751;SDS011;3413;47.680;9.166;2023-05-19T21:05:30;6.00;;;3.50;;
6751;SDS011;3413;47.680;9.166;2023-05-19T21:10:32;7.40;;;2.73;;
6751;SDS011;3413;47.680;9.166;2023-05-19T21:15:35;7.67;;;3.37;;
6751;SDS011;3413;47.680;9.166;2023-05-19T21:20:37;9.03;;;3.17;;
6751;SDS011;3413;47.680;9.166;2023-05-19T21:25:39;9.50;;;3.37;;
6751;SDS011;3413;47.680;9.166;2023-05-19T21:30:45;7.00;;;3.30;;
6751;SDS011;3413;47.680;9.166;2023-05-19T21:35:48;5.13;;;2.87;;
6751;SDS011;3413;47.680;9.166;2023-05-19T21:40:50;6.13;;;3.00;;
6751;SDS011;3413;47.680;9.166;2023-05-19T21:45:53;4.90;;;3.07;;
6751;SDS011;3413;47.680;9.166;2023-05-19T21:50:55;7.67;;;3.40;;
6751;SDS011;3413;47.680;9.166;2023-05-19T21:55:58;6.93;;;3.60;;
6751;SDS011;3413;47.680;9.166;2023-05-19T22:01:00;9.20;;;3.30;;
6751;SDS011;3413;47.680;9.166;2023-05-19T22:06:02;8.43;;;3.30;;
6751;SDS011;3413;47.680;9.166;2023-05-19T22:11:06;10.70;;;3.80;;
6751;SDS011;3413;47.680;9.166;2023-05-19T22:16:09;6.13;;;3.23;;
6751;SDS011;3413;47.680;9.166;2023-05-19T22:21:49;8.37;;;3.57;;
6751;SDS011;3413;47.680;9.166;2023-05-19T22:27:44;10.57;;;3.63;;
6751;SDS011;3413;47.680;9.166;2023-05-19T22:33:15;6.50;;;3.43;;
6751;SDS011;3413;47.680;9.166;2023-05-19T22:38:21;7.27;;;3.40;;
6751;SDS011;3413;47.680;9.166;2023-05-19T22:44:32;6.10;;;3.23;;
6751;SDS011;3413;47.680;9.166;2023-05-19T22:56:22;5.30;;;3.00;;
6751;SDS011;3413;47.680;9.166;2023-05-19T23:01:42;11.20;;;3.53;;
6751;SDS011;3413;47.680;9.166;2023-05-19T23:07:02;9.20;;;3.77;;
6751;SDS011;3413;47.680;9.166;2023-05-19T23:12:19;6.33;;;3.50;;
6751;SDS011;3413;47.680;9.166;2023-05-19T23:17:49;5.83;;;3.17;;
6751;SDS011;3413;47.680;9.166;2023-05-19T23:23:19;8.23;;;3.93;;
6751;SDS011;3413;47.680;9.166;2023-05-19T23:28:34;6.10;;;3.63;;
6751;SDS011;3413;47.680;9.166;2023-05-19T23:34:09;10.30;;;3.83;;
6751;SDS011;3413;47.680;9.166;2023-05-19T23:39:27;6.97;;;3.70;;
6751;SDS011;3413;47.680;9.166;2023-05-19T23:44:47;8.03;;;3.37;;
6751;SDS011;3413;47.680;9.166;2023-05-19T23:50:19;11.60;;;3.87;;
6751;SDS011;3413;47.680;9.166;2023-05-19T23:55:21;7.30;;;3.80;;
